Time;durP1;ratioP1;P1;durP2;ratioP2;P2;SDS_P1;SDS_P2;PMS_P1;PMS_P2;Temp;Humidity;BMP_temperature;BMP_pressure;BME280_temperature;BME280_humidity;BME280_pressure;Samples;Min_cycle;Max_cycle;Signal;HPM_P1;HPM_P2
2023/04/26 00:02:33;;;;;;;12.03;6.50;;;7.10;99.90;;;;;;5035111;28;20198;-86
2023/04/26 00:05:00;;;;;;;12.27;6.17;;;7.10;99.90;;;;;;5037149;23;20306;-85
2023/04/26 00:07:30;;;;;;;12.57;6.10;;;7.10;99.90;;;;;;4979856;28;20323;-87
2023/04/26 00:10:00;;;;;;;12.17;6.17;;;7.00;99.90;;;;;;5001012;28;20228;-83
2023/04/26 00:12:28;;;;;;;13.27;5.33;;;7.10;99.90;;;;;;4980318;28;20216;-88
2023/04/26 00:14:55;;;;;;;13.00;5.77;;;7.00;99.90;;;;;;4978202;28;20283;-83
2023/04/26 00:17:23;;;;;;;11.67;5.70;;;7.10;99.90;;;;;;4978143;28;20200;-88
2023/04/26 00:19:50;;;;;;;9.50;5.13;;;7.10;99.90;;;;;;4979939;28;20618;-88
2023/04/26 00:22:17;;;;;;;10.97;5.50;;;7.00;99.90;;;;;;4980438;28;20292;-82
2023/04/26 00:24:44;;;;;;;9.63;5.00;;;7.00;99.90;;;;;;4984549;28;20236;-85
2023/04/26 00:27:11;;;;;;;7.37;4.77;;;6.90;99.90;;;;;;4981803;28;20229;-84
2023/04/26 00:29:38;;;;;;;10.27;3.93;;;7.00;99.90;;;;;;4978538;28;20279;-89
2023/04/26 00:32:05;;;;;;;6.40;3.67;;;6.90;99.90;;;;;;4997674;28;20203;-87
2023/04/26 00:34:33;;;;;;;6.50;4.13;;;6.90;99.90;;;;;;4978817;28;20189;-86
2023/04/26 00:37:01;;;;;;;8.40;3.60;;;6.90;99.90;;;;;;4963557;28;20242;-88
2023/04/26 00:39:29;;;;;;;6.60;3.30;;;7.00;99.90;;;;;;4979286;28;20188;-88
2023/04/26 00:41:57;;;;;;;5.43;2.80;;;6.90;99.90;;;;;;4978747;28;20226;-88
2023/04/26 00:44:23;;;;;;;5.60;3.00;;;6.90;99.90;;;;;;4977738;28;20291;-85
2023/04/26 00:46:52;;;;;;;4.87;2.70;;;6.80;99.90;;;;;;4983613;28;20350;-85
2023/04/26 00:49:54;;;;;;;4.00;2.40;;;6.90;99.90;;;;;;4993825;28;20185;-90
2023/04/26 03:36:59;;;;;;;13.50;5.00;;;6.20;99.90;;;;;;4935271;29;20643;-87
2023/04/26 03:39:26;;;;;;;10.37;4.90;;;6.20;99.90;;;;;;4943243;29;20680;-91
2023/04/26 03:41:53;;;;;;;12.17;5.10;;;5.90;99.90;;;;;;4925092;29;20682;-92
2023/04/26 03:48:28;;;;;;;17.50;5.40;;;5.80;99.90;;;;;;4940853;29;20234;-89
2023/04/26 04:09:55;;;;;;;10.37;5.07;;;5.50;99.90;;;;;;4958434;28;20565;-89
2023/04/26 04:13:10;;;;;;;11.90;5.43;;;5.50;99.90;;;;;;4880199;29;20218;-90
2023/04/26 04:27:25;;;;;;;18.27;6.40;;;5.60;99.90;;;;;;4955856;29;20688;-88
2023/04/26 04:31:19;;;;;;;18.57;6.80;;;5.60;99.90;;;;;;4902861;29;20206;-89
2023/04/26 04:40:27;;;;;;;16.60;7.17;;;5.60;99.90;;;;;;5148918;23;20245;-89
2023/04/26 04:44:01;;;;;;;17.10;7.30;;;5.70;99.90;;;;;;4982500;23;20297;-85
2023/04/26 04:55:37;;;;;;;17.73;7.00;;;5.70;99.90;;;;;;4975006;28;20184;-85
2023/04/26 04:58:53;;;;;;;13.87;6.70;;;5.80;99.90;;;;;;4926294;29;20242;-85
2023/04/26 05:07:14;;;;;;;15.63;6.67;;;5.60;99.90;;;;;;5009718;23;20275;-83
2023/04/26 05:09:41;;;;;;;14.00;6.57;;;5.70;99.90;;;;;;4961431;28;20693;-83
2023/04/26 05:12:08;;;;;;;18.53;7.23;;;5.60;99.90;;;;;;4957921;28;20292;-85
2023/04/26 05:14:35;;;;;;;16.30;6.67;;;5.70;99.90;;;;;;4975435;28;20222;-87
2023/04/26 05:17:02;;;;;;;13.43;5.80;;;5.70;99.90;;;;;;4958933;28;20201;-84
2023/04/26 05:19:29;;;;;;;13.23;5.70;;;5.60;99.90;;;;;;4957770;28;20204;-87
2023/04/26 05:21:56;;;;;;;12.40;6.50;;;5.60;99.90;;;;;;4975645;28;20200;-86
2023/04/26 05:24:57;;;;;;;18.10;6.00;;;5.60;99.90;;;;;;4953726;28;20616;-84
2023/04/26 05:32:49;;;;;;;9.57;5.00;;;5.70;99.90;;;;;;4975275;28;20193;-88
2023/04/26 05:35:27;;;;;;;13.73;5.20;;;5.70;99.90;;;;;;4962207;28;20255;-86
2023/04/26 05:37:54;;;;;;;9.90;5.50;;;5.80;99.90;;;;;;4976113;28;20310;-89
2023/04/26 05:40:26;;;;;;;12.87;5.17;;;5.80;99.90;;;;;;4966951;28;20556;-85
2023/04/26 05:51:35;;;;;;;17.07;6.03;;;5.70;99.90;;;;;;4875935;23;20662;-85
2023/04/26 05:54:07;;;;;;;13.47;5.27;;;5.60;99.90;;;;;;4952103;29;20253;-81
2023/04/26 06:00:05;;;;;;;14.00;5.17;;;5.70;99.90;;;;;;4929040;29;20274;-86
2023/04/26 06:02:32;;;;;;;13.63;5.03;;;5.70;99.90;;;;;;4931197;29;20203;-87
2023/04/26 06:05:47;;;;;;;12.13;4.90;;;5.80;99.90;;;;;;4903954;29;20186;-86
2023/04/26 06:08:17;;;;;;;14.20;5.03;;;6.00;99.90;;;;;;4940561;23;20702;-87
2023/04/26 06:10:54;;;;;;;14.10;5.77;;;5.90;99.90;;;;;;4953897;28;20224;-86
2023/04/26 06:13:42;;;;;;;13.13;4.80;;;5.90;99.90;;;;;;4956533;29;20248;-84
2023/04/26 06:16:09;;;;;;;10.93;4.70;;;6.00;99.90;;;;;;4953171;28;20330;-86
2023/04/26 06:18:38;;;;;;;17.60;4.97;;;6.20;99.90;;;;;;4950397;28;20213;-84
2023/04/26 06:21:42;;;;;;;13.53;5.20;;;6.10;99.90;;;;;;4897798;29;20205;-84
2023/04/26 06:26:54;;;;;;;11.60;4.80;;;6.30;99.90;;;;;;4933587;29;20264;-81
2023/04/26 06:29:22;;;;;;;11.63;4.33;;;6.40;99.90;;;;;;4917831;29;20205;-80
2023/04/26 06:31:48;;;;;;;13.97;4.70;;;6.60;99.90;;;;;;4934640;29;20220;-80
2023/04/26 06:34:24;;;;;;;10.47;4.67;;;6.90;99.90;;;;;;4934383;29;20222;-78
2023/04/26 06:36:53;;;;;;;13.07;4.47;;;6.90;99.90;;;;;;4945584;23;20245;-82
2023/04/26 06:39:20;;;;;;;9.73;3.90;;;6.80;99.90;;;;;;4952930;29;20297;-82
2023/04/26 06:41:51;;;;;;;10.93;4.20;;;6.90;99.90;;;;;;4951972;29;20712;-83
2023/04/26 06:44:18;;;;;;;10.83;3.73;;;7.10;99.90;;;;;;4952301;29;20244;-82
2023/04/26 06:46:45;;;;;;;12.17;3.90;;;7.10;99.90;;;;;;4952047;29;20324;-84
2023/04/26 06:49:12;;;;;;;13.83;3.83;;;7.20;99.90;;;;;;4936052;29;20210;-83
2023/04/26 06:51:39;;;;;;;8.90;3.70;;;7.30;99.90;;;;;;4954029;28;20202;-86
2023/04/26 06:54:06;;;;;;;10.97;3.80;;;7.40;99.90;;;;;;4955564;28;20614;-91
2023/04/26 06:56:33;;;;;;;11.97;3.80;;;7.30;99.90;;;;;;4955148;29;20204;-87
2023/04/26 06:59:04;;;;;;;10.23;3.50;;;7.30;99.90;;;;;;4953269;29;20216;-85
2023/04/26 07:01:35;;;;;;;12.00;3.67;;;7.50;99.90;;;;;;4953625;29;20201;-84
2023/04/26 07:04:03;;;;;;;9.57;3.20;;;7.60;99.90;;;;;;4954827;28;20216;-88
2023/04/26 07:06:34;;;;;;;8.00;3.40;;;7.80;99.90;;;;;;4953766;28;20283;-88
2023/04/26 07:09:02;;;;;;;9.40;2.87;;;7.90;99.90;;;;;;4954464;29;20202;-87
2023/04/26 07:11:31;;;;;;;10.00;3.20;;;7.90;99.90;;;;;;4954813;28;20201;-87
2023/04/26 07:14:01;;;;;;;9.43;2.87;;;7.80;99.90;;;;;;4952451;29;20242;-88
2023/04/26 07:16:30;;;;;;;9.50;3.10;;;7.70;99.90;;;;;;4952912;28;20198;-88
2023/04/26 07:18:57;;;;;;;8.93;3.00;;;7.70;99.90;;;;;;4953705;28;20332;-88
2023/04/26 07:21:27;;;;;;;8.10;2.60;;;7.80;99.90;;;;;;4960713;23;20233;-87
2023/04/26 07:24:00;;;;;;;7.80;3.00;;;7.70;99.90;;;;;;4953799;29;20186;-87
2023/04/26 07:26:28;;;;;;;9.67;3.00;;;7.90;99.90;;;;;;4954382;29;20207;-89
2023/04/26 07:28:55;;;;;;;9.67;2.50;;;7.90;99.90;;;;;;4957820;29;20209;-89
2023/04/26 07:31:24;;;;;;;8.90;2.50;;;8.00;99.90;;;;;;4963801;28;20199;-88
2023/04/26 07:33:51;;;;;;;8.63;2.53;;;8.30;99.90;;;;;;4958451;28;20233;-89
2023/04/26 07:36:19;;;;;;;12.60;2.40;;;8.40;99.90;;;;;;4958052;28;20222;-90
2023/04/26 07:38:49;;;;;;;9.20;2.40;;;8.40;99.90;;;;;;4977397;29;20229;-88
2023/04/26 07:41:16;;;;;;;8.00;2.40;;;8.60;99.90;;;;;;4959107;28;20273;-89
2023/04/26 07:43:43;;;;;;;7.53;2.60;;;8.60;99.90;;;;;;4970400;29;20219;-89
2023/04/26 07:46:10;;;;;;;10.87;2.53;;;8.80;99.90;;;;;;4926315;29;20214;-89
2023/04/26 07:48:38;;;;;;;7.13;2.60;;;9.00;99.90;;;;;;4957981;28;20600;-88
2023/04/26 07:51:11;;;;;;;10.33;2.40;;;9.10;99.90;;;;;;4958251;28;20223;-89
2023/04/26 07:53:39;;;;;;;5.93;2.27;;;9.10;99.90;;;;;;4941801;29;20206;-89
2023/04/26 07:56:07;;;;;;;10.13;2.80;;;9.00;99.90;;;;;;4957886;28;20207;-88
2023/04/26 07:58:40;;;;;;;7.33;2.63;;;9.00;99.90;;;;;;4957144;28;20214;-88
2023/04/26 08:01:08;;;;;;;9.40;2.83;;;8.90;99.90;;;;;;4958222;29;20214;-88
2023/04/26 08:03:36;;;;;;;7.23;2.60;;;9.00;99.90;;;;;;4958115;28;20304;-88
2023/04/26 08:06:04;;;;;;;5.50;2.63;;;9.10;99.90;;;;;;4957260;29;20199;-88
2023/04/26 08:08:39;;;;;;;8.93;2.67;;;9.50;99.90;;;;;;4957033;29;20727;-88
2023/04/26 08:11:09;;;;;;;9.43;2.40;;;9.70;99.90;;;;;;4957728;29;20257;-87
2023/04/26 08:13:36;;;;;;;10.17;3.00;;;9.60;99.90;;;;;;4957830;29;20202;-88
2023/04/26 08:16:03;;;;;;;7.93;3.00;;;9.30;99.90;;;;;;4941597;29;20212;-89
2023/04/26 08:18:30;;;;;;;11.07;3.17;;;9.00;99.90;;;;;;4956475;28;20202;-87
2023/04/26 08:20:57;;;;;;;7.27;2.70;;;9.40;99.90;;;;;;4959062;29;20253;-88
2023/04/26 08:23:24;;;;;;;8.40;3.20;;;10.70;99.90;;;;;;4959305;28;20562;-89
2023/04/26 08:25:51;;;;;;;6.53;2.63;;;11.90;99.90;;;;;;4959659;29;20202;-88
2023/04/26 08:28:18;;;;;;;7.20;2.27;;;12.10;99.90;;;;;;4943308;29;20214;-87
2023/04/26 08:30:46;;;;;;;5.90;2.10;;;11.70;99.90;;;;;;4958193;29;20292;-87
2023/04/26 08:33:13;;;;;;;8.47;2.90;;;10.80;99.90;;;;;;4959706;28;20202;-87
2023/04/26 08:35:40;;;;;;;8.93;2.37;;;10.00;99.90;;;;;;4966332;29;20238;-86
2023/04/26 08:38:07;;;;;;;7.53;2.10;;;9.70;99.90;;;;;;4977423;29;20202;-87
2023/04/26 08:40:35;;;;;;;8.10;2.30;;;9.30;99.90;;;;;;4966693;29;20194;-86
2023/04/26 08:43:03;;;;;;;4.23;2.10;;;9.30;99.90;;;;;;4956154;28;20206;-87
2023/04/26 08:45:31;;;;;;;8.20;2.57;;;9.10;99.90;;;;;;4956145;28;20551;-86
2023/04/26 08:48:10;;;;;;;8.47;2.90;;;9.00;99.90;;;;;;4956259;29;20222;-88
2023/04/26 08:50:38;;;;;;;5.83;2.53;;;8.80;99.90;;;;;;4940451;29;20217;-87
2023/04/26 08:53:06;;;;;;;7.27;2.40;;;8.70;99.90;;;;;;4957528;28;20195;-87
2023/04/26 08:55:37;;;;;;;6.33;2.50;;;9.00;99.90;;;;;;4957270;29;20190;-86
2023/04/26 08:58:04;;;;;;;3.30;1.90;;;9.70;99.90;;;;;;4955601;29;20206;-87
2023/04/26 09:00:31;;;;;;;8.43;2.17;;;10.30;99.90;;;;;;4955787;28;20190;-87
2023/04/26 09:02:58;;;;;;;5.67;2.30;;;10.30;99.90;;;;;;4956809;29;20674;-87
2023/04/26 09:05:25;;;;;;;7.50;2.30;;;9.80;99.90;;;;;;4955983;28;20237;-86
2023/04/26 09:07:56;;;;;;;6.17;2.17;;;9.50;99.90;;;;;;4956180;29;20589;-87
2023/04/26 09:10:51;;;;;;;5.03;2.03;;;9.30;99.90;;;;;;4956300;28;20289;-86
2023/04/26 09:13:18;;;;;;;6.47;2.10;;;9.50;99.90;;;;;;4955869;29;20194;-87
2023/04/26 09:36:47;;;;;;;5.93;1.50;;;10.10;99.90;;;;;;6102836;23;20197;-85
2023/04/26 09:39:36;;;;;;;6.17;1.67;;;9.70;99.90;;;;;;4909217;29;20256;-85
2023/04/26 09:42:08;;;;;;;5.07;1.67;;;9.40;99.90;;;;;;4901553;29;20211;-84
2023/04/26 09:44:35;;;;;;;5.87;1.60;;;9.10;99.90;;;;;;4916978;29;20211;-84
2023/04/26 09:47:08;;;;;;;7.53;1.40;;;9.10;99.90;;;;;;4900913;29;20196;-84
2023/04/26 09:49:50;;;;;;;4.47;1.60;;;9.00;99.90;;;;;;4902585;29;20625;-84
2023/04/26 09:55:49;;;;;;;4.90;1.50;;;9.00;99.90;;;;;;5935483;23;20237;-85
2023/04/26 10:23:48;;;;;;;5.40;1.43;;;10.30;99.90;;;;;;4901087;29;20240;-86
2023/04/26 10:26:56;;;;;;;5.80;1.50;;;10.10;99.70;;;;;;4918660;29;20200;-85
2023/04/26 10:29:24;;;;;;;4.13;1.40;;;10.00;99.90;;;;;;4922072;29;20198;-86
2023/04/26 10:32:01;;;;;;;8.80;1.80;;;10.90;99.90;;;;;;4917207;29;20779;-82
2023/04/26 10:34:30;;;;;;;2.87;1.43;;;12.20;98.10;;;;;;4918696;29;20672;-83
2023/04/26 10:37:10;;;;;;;4.97;1.57;;;12.10;95.00;;;;;;4919000;29;20326;-83
2023/04/26 10:39:42;;;;;;;5.57;1.57;;;11.80;93.70;;;;;;4917571;29;20187;-82
2023/04/26 10:42:26;;;;;;;5.03;1.40;;;11.70;95.90;;;;;;4900020;29;20618;-85
2023/04/26 10:44:55;;;;;;;4.63;1.20;;;11.60;91.60;;;;;;4899957;29;20200;-82
2023/04/26 10:48:10;;;;;;;2.30;1.10;;;11.70;90.40;;;;;;4917980;29;20207;-83
2023/04/26 10:51:10;;;;;;;4.17;1.33;;;12.20;86.60;;;;;;4917276;29;20204;-84
2023/04/26 10:53:44;;;;;;;6.10;1.80;;;12.30;82.00;;;;;;4915366;29;20291;-83
2023/04/26 10:56:26;;;;;;;3.97;1.43;;;11.30;87.90;;;;;;4903353;29;20294;-84
2023/04/26 10:59:14;;;;;;;3.40;1.40;;;10.90;92.10;;;;;;4915360;29;20207;-84
2023/04/26 11:01:44;;;;;;;5.47;1.43;;;10.60;95.70;;;;;;4916029;29;20557;-84
2023/04/26 11:04:12;;;;;;;7.97;1.80;;;10.20;96.60;;;;;;4901010;29;20204;-83
2023/04/26 11:06:52;;;;;;;4.50;1.60;;;10.30;97.60;;;;;;4920479;29;20183;-84
2023/04/26 11:09:50;;;;;;;9.73;1.70;;;10.10;97.50;;;;;;4921478;29;20625;-83
2023/04/26 11:13:02;;;;;;;6.57;2.13;;;10.00;99.00;;;;;;4946920;23;20249;-84
2023/04/26 11:29:49;;;;;;;;;;;;;;;;;;;;;
2023/04/26 11:33:24;;;;;;;4.77;1.47;;;9.70;99.90;;;;;;4956995;29;20265;-84
2023/04/26 11:36:03;;;;;;;6.40;1.97;;;9.70;99.90;;;;;;4957740;29;20251;-83
2023/04/26 11:38:30;;;;;;;3.80;1.40;;;9.50;99.90;;;;;;4956977;29;20221;-84
2023/04/26 11:43:41;;;;;;;3.43;1.67;;;9.50;99.90;;;;;;5288220;23;20233;-84
2023/04/26 11:46:16;;;;;;;5.83;1.60;;;9.50;99.90;;;;;;5256647;23;20703;-83
2023/04/26 11:51:48;;;;;;;3.87;1.50;;;10.20;99.90;;;;;;5383089;23;20321;-83
2023/04/26 11:54:32;;;;;;;7.20;1.77;;;10.50;99.90;;;;;;4956356;29;20575;-85
2023/04/26 11:57:13;;;;;;;5.17;1.60;;;10.60;99.90;;;;;;4956261;29;20198;-85
2023/04/26 11:59:47;;;;;;;6.97;1.57;;;10.30;99.90;;;;;;4940932;29;20224;-84
2023/04/26 12:02:15;;;;;;;5.20;1.60;;;10.10;99.80;;;;;;4957916;29;20256;-84
2023/04/26 12:04:43;;;;;;;5.50;1.70;;;9.90;98.10;;;;;;4959601;29;20214;-85
2023/04/26 12:07:10;;;;;;;3.90;1.63;;;9.80;99.60;;;;;;4956563;29;20606;-84
2023/04/26 12:09:41;;;;;;;4.17;1.40;;;9.80;99.60;;;;;;4956966;29;20313;-85
2023/04/26 12:12:10;;;;;;;5.17;1.53;;;9.80;99.90;;;;;;4941443;29;20194;-86
2023/04/26 12:14:39;;;;;;;6.37;1.83;;;9.80;99.90;;;;;;4957697;29;20655;-86
2023/04/26 12:17:06;;;;;;;6.17;1.77;;;9.60;99.50;;;;;;4955428;28;20225;-84
2023/04/26 12:19:38;;;;;;;3.43;1.63;;;9.70;99.90;;;;;;4955432;29;20548;-84
2023/04/26 12:22:06;;;;;;;6.00;1.97;;;9.80;99.90;;;;;;4958336;29;20567;-86
2023/04/26 12:24:36;;;;;;;4.70;1.67;;;9.90;99.90;;;;;;4955196;29;20194;-85
2023/04/26 12:27:05;;;;;;;4.47;1.50;;;9.90;99.90;;;;;;4954731;29;20202;-83
2023/04/26 12:29:33;;;;;;;4.80;1.60;;;10.10;99.90;;;;;;4954774;29;20249;-85
2023/04/26 12:32:01;;;;;;;5.87;1.60;;;10.20;98.60;;;;;;4955153;29;20290;-83
2023/04/26 12:34:29;;;;;;;5.93;1.70;;;10.40;99.90;;;;;;4955941;29;20198;-82
2023/04/26 12:36:57;;;;;;;4.97;1.53;;;11.30;99.90;;;;;;4955665;29;20241;-83
2023/04/26 12:39:24;;;;;;;4.93;1.70;;;12.30;95.60;;;;;;4955280;29;20686;-84
2023/04/26 12:41:51;;;;;;;6.10;1.80;;;12.60;92.90;;;;;;4955519;29;20622;-83
2023/04/26 12:44:18;;;;;;;5.63;1.60;;;12.30;92.70;;;;;;4955453;29;20249;-83
2023/04/26 12:46:48;;;;;;;4.00;1.70;;;12.00;91.20;;;;;;4956383;29;20562;-83
2023/04/26 12:49:18;;;;;;;5.97;1.73;;;11.70;91.40;;;;;;4955434;29;20218;-83
2023/04/26 12:51:46;;;;;;;3.17;1.60;;;11.30;92.10;;;;;;4956625;29;20218;-83
2023/04/26 12:54:16;;;;;;;3.70;1.73;;;11.20;93.30;;;;;;4956960;29;20225;-86
2023/04/26 12:56:43;;;;;;;5.33;1.53;;;11.00;93.90;;;;;;4955856;29;20205;-85
2023/04/26 12:59:13;;;;;;;6.37;1.90;;;11.00;91.80;;;;;;4955734;29;20600;-85
2023/04/26 13:01:40;;;;;;;5.40;1.70;;;10.80;90.80;;;;;;4955436;29;20286;-83
2023/04/26 13:04:08;;;;;;;5.03;1.77;;;10.70;90.00;;;;;;4954707;29;20253;-87
2023/04/26 13:06:35;;;;;;;3.60;1.47;;;10.50;91.70;;;;;;4955679;29;20202;-85
2023/04/26 13:09:07;;;;;;;4.00;1.87;;;10.50;93.20;;;;;;4945919;23;20237;-85
2023/04/26 13:11:34;;;;;;;5.23;1.90;;;10.20;93.70;;;;;;4956604;28;20573;-85
2023/04/26 13:14:01;;;;;;;8.00;2.17;;;10.20;95.70;;;;;;4927052;29;20226;-84
2023/04/26 13:16:28;;;;;;;5.17;1.77;;;10.30;97.40;;;;;;4960442;29;20234;-83
2023/04/26 13:18:55;;;;;;;5.37;1.80;;;10.00;98.60;;;;;;4958640;29;20201;-84
2023/04/26 13:21:26;;;;;;;4.97;1.60;;;9.90;99.10;;;;;;4954935;29;20202;-84
2023/04/26 13:23:52;;;;;;;5.63;2.27;;;9.80;99.30;;;;;;4939272;29;20209;-83
2023/04/26 13:26:19;;;;;;;4.17;1.60;;;9.50;99.90;;;;;;4954491;29;20209;-84
2023/04/26 13:28:47;;;;;;;7.27;1.80;;;9.30;99.90;;;;;;4954911;28;20226;-84
2023/04/26 13:31:16;;;;;;;3.67;1.30;;;9.50;99.90;;;;;;4954525;29;20206;-84
2023/04/26 13:33:47;;;;;;;3.80;1.83;;;9.80;99.90;;;;;;4955024;29;20224;-85
2023/04/26 13:36:15;;;;;;;3.87;1.90;;;9.90;99.90;;;;;;4956489;29;20224;-87
2023/04/26 13:38:43;;;;;;;5.73;1.70;;;9.90;99.90;;;;;;4957495;29;20261;-85
2023/04/26 13:41:11;;;;;;;7.07;1.60;;;10.10;98.20;;;;;;4958746;29;20202;-84
2023/04/26 13:43:38;;;;;;;7.07;1.80;;;10.00;94.60;;;;;;4955460;29;20210;-84
2023/04/26 13:46:05;;;;;;;7.30;1.70;;;10.30;96.20;;;;;;4954722;29;20601;-84
2023/04/26 13:48:32;;;;;;;6.27;1.80;;;10.30;95.60;;;;;;4953399;29;20229;-85
2023/04/26 13:50:59;;;;;;;4.07;1.70;;;10.20;95.20;;;;;;4938096;29;20205;-87
2023/04/26 13:53:26;;;;;;;3.37;1.60;;;10.00;94.60;;;;;;4956716;29;20560;-87
2023/04/26 13:55:54;;;;;;;9.37;1.80;;;10.10;97.10;;;;;;4954845;29;20199;-84
2023/04/26 13:58:21;;;;;;;5.13;1.60;;;10.20;95.40;;;;;;4955750;28;20206;-85
2023/04/26 14:00:48;;;;;;;6.73;1.50;;;10.10;95.40;;;;;;4956907;29;20199;-86
2023/04/26 14:03:15;;;;;;;3.40;1.50;;;10.00;95.60;;;;;;4957799;29;20253;-86
2023/04/26 14:05:43;;;;;;;7.23;1.60;;;9.90;95.80;;;;;;4954275;29;20237;-84
2023/04/26 14:08:11;;;;;;;5.57;1.80;;;10.00;96.30;;;;;;4954092;29;20222;-86
2023/04/26 14:10:38;;;;;;;4.40;1.60;;;10.10;96.10;;;;;;4954303;29;20253;-85
2023/04/26 14:13:05;;;;;;;2.37;1.43;;;10.00;97.90;;;;;;4956333;29;20182;-87
2023/04/26 14:15:52;;;;;;;4.73;1.70;;;9.80;95.00;;;;;;4954487;29;20297;-86
2023/04/26 14:18:19;;;;;;;2.83;1.60;;;9.80;95.00;;;;;;4960793;23;20246;-85
2023/04/26 14:20:47;;;;;;;4.67;1.93;;;9.80;95.40;;;;;;4955991;29;20197;-84
2023/04/26 14:23:14;;;;;;;4.23;1.80;;;9.70;95.10;;;;;;4938457;29;20209;-85
2023/04/26 14:25:44;;;;;;;5.57;1.40;;;10.00;95.40;;;;;;4956732;29;20202;-84
2023/04/26 14:28:11;;;;;;;6.93;1.80;;;9.80;95.00;;;;;;4955028;29;20221;-82
2023/04/26 14:43:26;;;;;;;2.97;1.40;;;9.20;96.80;;;;;;5045090;23;20644;-85
2023/04/26 14:45:53;;;;;;;5.20;1.70;;;9.20;97.70;;;;;;4954070;29;20213;-85
2023/04/26 14:48:42;;;;;;;4.83;1.60;;;9.10;98.50;;;;;;4937656;29;20702;-84
2023/04/26 15:08:06;;;;;;;5.30;1.60;;;9.20;99.90;;;;;;1439241;27;20691;-82
2023/04/26 15:20:05;;;;;;;5.97;1.80;;;9.10;99.90;;;;;;4877536;29;20199;-85
2023/04/26 15:23:55;;;;;;;5.87;1.60;;;9.30;99.90;;;;;;4879210;29;20217;-86
2023/04/26 15:26:23;;;;;;;4.97;2.00;;;9.20;99.90;;;;;;4862194;29;20205;-85
2023/04/26 15:28:50;;;;;;;4.77;2.10;;;9.20;99.90;;;;;;4861002;29;20217;-83
2023/04/26 15:31:17;;;;;;;10.37;2.40;;;9.00;99.90;;;;;;4865414;29;20208;-87
2023/04/26 15:33:44;;;;;;;4.60;1.70;;;9.20;99.90;;;;;;4862845;29;20276;-85
2023/04/26 15:36:11;;;;;;;7.27;2.07;;;9.20;99.90;;;;;;4862377;29;20232;-85
2023/04/26 15:38:40;;;;;;;5.50;2.07;;;9.10;99.90;;;;;;4877679;29;20642;-81
2023/04/26 15:41:07;;;;;;;6.80;2.23;;;8.80;99.90;;;;;;4866490;29;20259;-85
2023/04/26 15:43:34;;;;;;;6.07;2.30;;;8.80;99.90;;;;;;4883242;29;20213;-83
2023/04/26 15:46:12;;;;;;;5.73;2.00;;;8.70;99.90;;;;;;4862186;29;20219;-84
2023/04/26 15:48:39;;;;;;;3.50;1.70;;;8.60;99.90;;;;;;4860889;29;20218;-83
2023/04/26 15:51:06;;;;;;;7.80;2.37;;;8.60;99.90;;;;;;4878271;29;20211;-85
2023/04/26 15:53:33;;;;;;;9.03;2.70;;;8.70;99.90;;;;;;4891472;29;20286;-85
2023/04/26 15:56:27;;;;;;;7.63;2.30;;;8.60;99.90;;;;;;4908555;29;20215;-85
2023/04/26 15:59:23;;;;;;;4.43;2.17;;;8.60;99.90;;;;;;4902579;29;20225;-85
2023/04/26 16:01:50;;;;;;;8.77;2.80;;;8.70;99.90;;;;;;4922214;29;20202;-85
2023/04/26 16:04:17;;;;;;;7.03;2.63;;;8.60;99.90;;;;;;4924301;29;20205;-86
2023/04/26 16:06:44;;;;;;;5.30;2.10;;;8.60;99.90;;;;;;4925120;29;20220;-84
2023/04/26 16:09:18;;;;;;;7.43;2.37;;;8.60;99.90;;;;;;4927219;29;20233;-83
2023/04/26 16:11:52;;;;;;;5.23;2.00;;;8.50;99.90;;;;;;4926717;29;20210;-84
2023/04/26 16:14:18;;;;;;;3.90;1.90;;;8.60;99.90;;;;;;4923666;29;20273;-83
2023/04/26 16:16:46;;;;;;;5.13;2.20;;;8.60;99.90;;;;;;4940241;29;20191;-86
2023/04/26 16:19:12;;;;;;;4.73;1.90;;;8.70;99.90;;;;;;4923377;29;20213;-85
2023/04/26 16:21:40;;;;;;;6.60;2.40;;;8.70;99.90;;;;;;4911107;29;20199;-85
2023/04/26 16:24:07;;;;;;;5.47;2.67;;;8.50;99.90;;;;;;4939112;29;20606;-85
2023/04/26 16:26:37;;;;;;;6.20;2.07;;;8.60;99.90;;;;;;4938629;29;20302;-86
2023/04/26 16:29:04;;;;;;;5.23;2.40;;;8.60;99.90;;;;;;4919963;29;20247;-83
2023/04/26 16:31:31;;;;;;;5.50;2.07;;;8.60;99.90;;;;;;4923818;29;20241;-84
2023/04/26 16:33:59;;;;;;;4.20;2.10;;;8.70;99.90;;;;;;4920995;29;20210;-85
2023/04/26 16:36:26;;;;;;;4.87;2.40;;;8.70;99.90;;;;;;4922304;29;20254;-86
2023/04/26 16:38:53;;;;;;;4.20;2.33;;;8.70;99.90;;;;;;4922539;29;20195;-83
2023/04/26 16:41:24;;;;;;;5.93;2.20;;;8.80;99.90;;;;;;4904617;29;20252;-85
2023/04/26 16:43:54;;;;;;;6.60;2.50;;;8.70;99.90;;;;;;4921903;29;20229;-84
2023/04/26 16:46:22;;;;;;;8.20;2.57;;;8.50;99.90;;;;;;4919304;29;20194;-82
2023/04/26 16:48:49;;;;;;;5.83;2.50;;;8.60;99.90;;;;;;4919543;29;20703;-84
2023/04/26 16:51:16;;;;;;;4.90;2.03;;;8.60;99.90;;;;;;4936499;29;20207;-83
2023/04/26 16:53:43;;;;;;;7.63;2.50;;;8.70;99.90;;;;;;4919938;29;20213;-85
2023/04/26 16:56:16;;;;;;;7.80;2.37;;;8.80;99.90;;;;;;4920401;29;20214;-85
2023/04/26 16:58:46;;;;;;;7.70;2.60;;;8.70;99.90;;;;;;4920296;29;20184;-86
2023/04/26 17:01:13;;;;;;;8.67;2.27;;;8.80;99.90;;;;;;4919377;29;20215;-80
2023/04/26 17:03:40;;;;;;;7.67;2.20;;;8.60;99.90;;;;;;4919142;29;20294;-78
2023/04/26 17:06:09;;;;;;;7.37;2.40;;;8.50;99.90;;;;;;4920243;29;20305;-77
2023/04/26 17:08:36;;;;;;;7.90;2.40;;;8.60;99.90;;;;;;4940914;29;20199;-75
2023/04/26 17:11:03;;;;;;;6.60;2.30;;;8.40;99.90;;;;;;4920672;29;20216;-79
2023/04/26 17:13:32;;;;;;;5.23;2.20;;;8.30;99.90;;;;;;4916767;29;20239;-76
2023/04/26 17:15:59;;;;;;;4.23;2.33;;;8.40;99.90;;;;;;4916634;29;20247;-77
2023/04/26 17:18:27;;;;;;;7.50;2.10;;;8.40;99.90;;;;;;4917060;29;20674;-77
2023/04/26 17:20:55;;;;;;;6.67;2.40;;;8.40;99.90;;;;;;4915677;29;20309;-74
2023/04/26 17:23:23;;;;;;;5.33;2.07;;;8.40;99.90;;;;;;4915585;29;20226;-76
2023/04/26 17:25:50;;;;;;;5.77;2.20;;;8.30;99.90;;;;;;4915020;29;20555;-77
2023/04/26 17:28:20;;;;;;;7.07;2.50;;;8.30;99.90;;;;;;4914750;29;20211;-75
2023/04/26 17:30:47;;;;;;;6.13;2.50;;;8.20;99.90;;;;;;4916087;29;20305;-75
2023/04/26 17:33:13;;;;;;;5.50;2.27;;;8.20;99.90;;;;;;4915129;29;20297;-76
2023/04/26 17:35:40;;;;;;;4.90;1.97;;;8.30;99.90;;;;;;4898840;29;20712;-77
2023/04/26 17:38:12;;;;;;;7.23;2.27;;;8.30;99.90;;;;;;4915123;29;20266;-78
2023/04/26 17:49:02;;;;;;;7.10;2.90;;;8.30;99.90;;;;;;4823908;29;20205;-80
2023/04/26 17:52:22;;;;;;;5.07;2.13;;;8.10;99.90;;;;;;4820709;29;20206;-77
2023/04/26 17:54:49;;;;;;;6.17;2.77;;;8.40;99.90;;;;;;4753562;30;20216;-82
2023/04/26 17:57:18;;;;;;;7.33;2.37;;;8.30;99.90;;;;;;4772930;30;20212;-82
2023/04/26 17:59:46;;;;;;;5.87;2.57;;;8.40;99.90;;;;;;4769170;30;20209;-80
2023/04/26 18:02:13;;;;;;;6.73;2.70;;;8.30;99.90;;;;;;4770602;30;20213;-84
2023/04/26 18:04:43;;;;;;;7.17;2.83;;;8.20;99.90;;;;;;4769611;29;20765;-93
2023/04/26 18:07:13;;;;;;;8.77;2.97;;;8.30;99.90;;;;;;4771076;30;20208;-85
2023/04/26 18:09:43;;;;;;;6.70;3.00;;;8.20;99.90;;;;;;4754270;30;20288;-85
2023/04/26 18:12:10;;;;;;;6.83;2.50;;;8.20;99.90;;;;;;4788196;29;20652;-76
2023/04/26 18:14:43;;;;;;;8.27;3.30;;;8.10;99.90;;;;;;4809139;29;20207;-70
2023/04/26 18:17:11;;;;;;;7.90;2.87;;;8.30;99.90;;;;;;5019623;23;20268;-80
2023/04/26 18:20:42;;;;;;;9.07;3.10;;;8.30;99.90;;;;;;4967340;29;20276;-87
2023/04/26 18:23:55;;;;;;;9.27;3.20;;;8.30;99.90;;;;;;4996951;23;20253;-86
2023/04/26 18:26:21;;;;;;;6.83;2.93;;;8.40;99.90;;;;;;4825137;29;20282;-85
2023/04/26 18:28:49;;;;;;;5.60;3.07;;;8.40;99.90;;;;;;4842070;29;20322;-81
2023/04/26 18:31:16;;;;;;;8.43;3.00;;;8.40;99.90;;;;;;4858512;29;20208;-83
2023/04/26 18:33:46;;;;;;;11.57;3.10;;;8.20;99.90;;;;;;4842973;29;20197;-85
2023/04/26 18:36:18;;;;;;;10.63;3.50;;;8.30;99.90;;;;;;4841959;29;20343;-81
2023/04/26 18:38:45;;;;;;;11.57;3.73;;;8.20;99.90;;;;;;4859202;29;20212;-83
2023/04/26 18:41:22;;;;;;;8.47;3.60;;;7.90;99.90;;;;;;4861217;29;20617;-84
2023/04/26 18:43:52;;;;;;;9.97;3.73;;;7.90;99.90;;;;;;4862034;29;20246;-83
2023/04/26 18:49:27;;;;;;;10.90;3.73;;;7.80;99.90;;;;;;4929995;28;20266;-88
2023/04/26 18:52:11;;;;;;;8.97;4.10;;;7.70;99.90;;;;;;4898863;29;20216;-86
2023/04/26 18:54:45;;;;;;;13.70;4.17;;;7.60;99.90;;;;;;4916169;29;20251;-84
2023/04/26 18:57:13;;;;;;;10.87;3.73;;;7.60;99.90;;;;;;4899347;29;20269;-85
2023/04/26 18:59:40;;;;;;;9.83;3.87;;;7.40;99.90;;;;;;4914964;29;20222;-83
2023/04/26 19:02:07;;;;;;;11.33;4.03;;;7.50;99.90;;;;;;4915669;29;20195;-83
2023/04/26 19:04:34;;;;;;;8.20;3.83;;;7.50;99.90;;;;;;4916160;29;20247;-81
2023/04/26 19:07:02;;;;;;;10.87;3.90;;;7.60;99.90;;;;;;4915935;29;20322;-80
2023/04/26 19:09:33;;;;;;;9.30;3.70;;;7.40;99.90;;;;;;4915457;29;20695;-78
2023/04/26 19:12:19;;;;;;;6.17;3.10;;;7.50;99.90;;;;;;4899437;29;20210;-81
2023/04/26 19:14:53;;;;;;;10.23;3.60;;;7.30;99.90;;;;;;4916218;29;20629;-81
2023/04/26 19:20:28;;;;;;;9.10;4.13;;;7.20;99.90;;;;;;4875543;29;20665;-82
2023/04/26 19:22:55;;;;;;;8.70;3.70;;;7.10;99.90;;;;;;4881065;29;20215;-81
2023/04/26 19:32:42;;;;;;;10.10;4.00;;;7.20;99.90;;;;;;4945277;23;20271;-75